Time;durP1;ratioP1;P1;durP2;ratioP2;P2;SDS_P1;SDS_P2;PMS_P1;PMS_P2;Temp;Humidity;BMP_temperature;BMP_pressure;BME280_temperature;BME280_humidity;BME280_pressure;Samples;Min_cycle;Max_cycle;Signal;HPM_P1;HPM_P2
2021/12/15 00:01:02;;;;;;;190.85;56.50;;;;;;;8.00;100.00;102909.97;5138962;27;20446;-44
2021/12/15 00:03:28;;;;;;;187.75;54.20;;;;;;;7.98;100.00;102904.75;5141432;27;20065;-44
2021/12/15 00:05:54;;;;;;;185.88;52.50;;;;;;;7.98;100.00;102904.75;5142200;27;20175;-47
2021/12/15 00:08:20;;;;;;;172.18;51.33;;;;;;;7.98;100.00;102903.91;5140730;27;20030;-45
2021/12/15 00:10:48;;;;;;;180.30;51.47;;;;;;;7.98;100.00;102911.88;5142376;27;20026;-44
2021/12/15 00:13:16;;;;;;;179.85;52.13;;;;;;;7.96;100.00;102898.66;5141998;27;20442;-45
2021/12/15 00:15:42;;;;;;;180.20;53.38;;;;;;;7.98;100.00;102903.91;5141222;27;20486;-47
2021/12/15 00:18:08;;;;;;;176.57;50.53;;;;;;;7.97;100.00;102903.03;5141076;27;20132;-45
2021/12/15 00:20:34;;;;;;;188.20;50.85;;;;;;;7.98;100.00;102899.44;5141885;27;20623;-45
2021/12/15 00:23:00;;;;;;;182.98;51.40;;;;;;;7.98;100.00;102890.59;5130984;27;20030;-45
2021/12/15 00:25:28;;;;;;;183.20;50.22;;;;;;;7.97;100.00;102896.84;5127248;27;20018;-48
2021/12/15 00:27:55;;;;;;;182.52;50.28;;;;;;;7.98;100.00;102898.59;5140887;27;20015;-46
2021/12/15 00:30:22;;;;;;;183.05;49.03;;;;;;;7.97;100.00;102897.72;5142294;27;20042;-46
2021/12/15 00:32:48;;;;;;;177.30;48.50;;;;;;;7.98;100.00;102885.28;5140277;27;20110;-46
2021/12/15 00:35:16;;;;;;;171.32;48.22;;;;;;;7.97;100.00;102894.19;5141575;27;20056;-48
2021/12/15 00:37:41;;;;;;;188.27;53.47;;;;;;;7.95;100.00;102894.28;5140320;27;20080;-46
2021/12/15 00:40:10;;;;;;;181.55;50.35;;;;;;;7.96;100.00;102892.47;5141559;27;20492;-48
2021/12/15 00:42:35;;;;;;;178.05;48.88;;;;;;;7.95;100.00;102888.97;5141724;27;20493;-45
2021/12/15 00:45:02;;;;;;;203.98;56.80;;;;;;;7.93;100.00;102885.56;5141140;27;20034;-48
2021/12/15 00:47:28;;;;;;;192.23;51.55;;;;;;;7.90;100.00;102887.53;5139718;27;20062;-45
2021/12/15 00:49:53;;;;;;;174.82;49.88;;;;;;;7.92;100.00;102886.47;5140929;27;20038;-44
2021/12/15 00:52:19;;;;;;;190.73;52.05;;;;;;;7.92;100.00;102885.63;5128106;27;20122;-46
2021/12/15 00:54:44;;;;;;;189.80;51.10;;;;;;;7.92;100.00;102881.16;5121052;27;20027;-44
2021/12/15 00:57:10;;;;;;;178.32;49.58;;;;;;;7.92;100.00;102880.31;5141635;27;20033;-44
2021/12/15 00:59:36;;;;;;;184.73;52.22;;;;;;;7.90;100.00;102880.41;5141182;27;20021;-44
2021/12/15 01:02:02;;;;;;;183.98;52.33;;;;;;;7.92;100.00;102890.97;5139495;27;20121;-45
2021/12/15 01:04:33;;;;;;;177.73;49.05;;;;;;;7.91;100.00;102890.13;5141076;27;20080;-45
2021/12/15 01:07:03;;;;;;;168.23;48.60;;;;;;;7.91;100.00;102886.56;5140581;27;20065;-45
2021/12/15 01:09:35;;;;;;;179.00;48.85;;;;;;;7.92;100.00;102885.63;5140793;27;21365;-47
2021/12/15 01:19:59;;;;;;;188.60;51.85;;;;;;;7.91;100.00;102886.56;5140733;27;20041;-48
2021/12/15 01:22:33;;;;;;;182.52;49.25;;;;;;;7.90;100.00;102876.91;5135348;27;20433;-48
2021/12/15 01:25:05;;;;;;;184.27;48.33;;;;;;;7.91;100.00;102881.25;5122493;27;20027;-48
2021/12/15 01:27:30;;;;;;;;;;;;;;;7.95;100.00;102890.78;5140813;27;20470;-46
2021/12/15 01:29:55;;;;;;;180.07;48.92;;;;;;;7.93;100.00;102896.19;5120877;27;20006;-47
2021/12/15 01:32:21;;;;;;;187.48;52.22;;;;;;;7.93;100.00;102887.38;5139842;27;20027;-46
2021/12/15 01:34:46;;;;;;;174.65;47.92;;;;;;;7.93;100.00;102892.69;5140892;27;20025;-45
2021/12/15 01:37:12;;;;;;;180.40;46.78;;;;;;;7.92;100.00;102890.97;5139436;27;20098;-48
2021/12/15 01:39:38;;;;;;;181.65;48.90;;;;;;;7.91;100.00;102895.44;5139937;27;20097;-43
2021/12/15 01:42:04;;;;;;;182.38;47.78;;;;;;;7.90;100.00;102896.38;5140279;27;20419;-45
2021/12/15 01:47:00;;;;;;;170.85;45.72;;;;;;;7.90;100.00;102896.38;5138406;27;20138;-44
2021/12/15 01:49:48;;;;;;;181.07;51.25;;;;;;;7.91;100.00;102889.25;5140661;27;20067;-45
2021/12/15 01:52:29;;;;;;;179.25;48.78;;;;;;;7.91;100.00;102894.56;5127823;27;20043;-44
2021/12/15 01:55:06;;;;;;;181.77;49.17;;;;;;;7.90;100.00;102903.50;5136225;27;20023;-44
2021/12/15 01:57:34;;;;;;;170.65;45.85;;;;;;;7.89;100.00;102902.66;5140227;27;20049;-47
2021/12/15 02:00:01;;;;;;;175.93;47.67;;;;;;;7.90;100.00;102909.69;5139856;27;20431;-47
2021/12/15 02:02:27;;;;;;;169.45;46.40;;;;;;;7.89;100.00;102907.97;5139005;27;20102;-45
2021/12/15 02:04:53;;;;;;;191.10;49.35;;;;;;;7.90;100.00;102911.50;5139653;27;20031;-46
2021/12/15 02:07:21;;;;;;;173.45;46.78;;;;;;;7.90;100.00;102920.31;5138976;27;20192;-45
2021/12/15 02:12:18;;;;;;;175.38;46.40;;;;;;;7.91;100.00;102918.50;5139769;27;20030;-49
2021/12/15 02:14:43;;;;;;;186.15;46.35;;;;;;;7.90;100.00;102914.16;5120653;27;20381;-46
2021/12/15 02:17:09;;;;;;;185.13;48.20;;;;;;;7.90;100.00;102919.47;5139070;27;20071;-45
2021/12/15 02:19:34;;;;;;;185.65;46.95;;;;;;;7.89;100.00;102912.44;5139825;27;20023;-44
2021/12/15 02:22:00;;;;;;;176.65;46.25;;;;;;;7.90;100.00;102919.47;5138349;27;20369;-46
2021/12/15 02:24:25;;;;;;;185.75;48.42;;;;;;;7.88;100.00;102914.25;5138924;27;20388;-44
2021/12/15 02:26:57;;;;;;;171.90;44.05;;;;;;;7.91;100.00;102921.16;5138831;27;20030;-48
2021/12/15 02:29:23;;;;;;;193.38;51.03;;;;;;;7.92;100.00;102922.88;5139335;27;20037;-44
2021/12/15 02:31:57;;;;;;;192.95;47.72;;;;;;;7.91;100.00;102919.38;5138972;27;20083;-46
2021/12/15 02:39:27;;;;;;;176.93;45.08;;;;;;;7.93;100.00;102921.94;5139004;27;20522;-45
2021/12/15 02:41:53;;;;;;;187.05;48.83;;;;;;;7.92;100.00;102922.88;5120004;27;20023;-45
2021/12/15 02:44:20;;;;;;;173.70;45.80;;;;;;;7.93;100.00;102919.28;5140001;27;20422;-49
2021/12/15 02:46:47;;;;;;;186.07;45.92;;;;;;;7.94;100.00;102920.97;5137900;27;20038;-48
2021/12/15 02:49:16;;;;;;;189.07;46.85;;;;;;;7.90;100.00;102911.50;5139413;27;20022;-46
2021/12/15 02:51:43;;;;;;;201.40;48.17;;;;;;;7.92;100.00;102917.56;5139309;27;20482;-46
2021/12/15 02:54:12;;;;;;;188.65;47.03;;;;;;;7.91;100.00;102916.72;5138153;27;20481;-48
2021/12/15 02:56:39;;;;;;;189.85;45.50;;;;;;;7.92;100.00;102914.91;5138947;27;20038;-47
2021/12/15 02:59:07;;;;;;;180.25;46.47;;;;;;;7.90;100.00;102906.16;5139080;27;20106;-45
2021/12/15 03:01:53;;;;;;;176.50;45.50;;;;;;;7.89;100.00;102907.09;5121930;27;20655;-45
2021/12/15 03:04:36;;;;;;;192.07;48.55;;;;;;;7.93;100.00;102911.31;5139520;27;20018;-45
2021/12/15 03:07:14;;;;;;;195.55;50.28;;;;;;;7.92;100.00;102904.25;5137764;27;20426;-49
2021/12/15 03:17:42;;;;;;;177.00;43.05;;;;;;;7.91;100.00;102910.53;5131658;27;20087;-45
2021/12/15 03:20:10;;;;;;;188.13;46.33;;;;;;;7.93;100.00;102908.66;5138924;27;20031;-46
2021/12/15 03:22:36;;;;;;;180.77;45.78;;;;;;;7.93;100.00;102906.84;5137324;27;20022;-44
2021/12/15 03:25:02;;;;;;;169.88;43.88;;;;;;;7.95;100.00;102912.06;5138794;27;20023;-45
2021/12/15 03:33:17;;;;;;;178.63;44.10;;;;;;;7.94;100.00;102897.91;5138797;27;20538;-48
2021/12/15 03:36:03;;;;;;;180.07;45.42;;;;;;;7.95;100.00;102910.25;5113979;27;20079;-45
2021/12/15 03:38:29;;;;;;;185.00;48.75;;;;;;;7.92;100.00;102906.94;5142311;27;20050;-43
2021/12/15 03:40:55;;;;;;;182.73;45.20;;;;;;;7.95;100.00;102912.06;5142750;27;20085;-45
2021/12/15 03:43:21;;;;;;;174.82;43.35;;;;;;;7.97;100.00;102912.81;5143203;27;20318;-47
2021/12/15 03:45:50;;;;;;;178.07;45.22;;;;;;;7.96;100.00;102919.09;5142688;27;20393;-48
2021/12/15 03:48:19;;;;;;;172.77;43.92;;;;;;;7.96;100.00;102922.63;5141783;27;20546;-46
2021/12/15 03:50:46;;;;;;;186.82;48.72;;;;;;;7.97;100.00;102931.44;5143138;27;20037;-45
2021/12/15 03:53:13;;;;;;;177.77;42.80;;;;;;;7.96;100.00;102924.41;5122007;27;20034;-45
2021/12/15 03:55:39;;;;;;;177.05;45.70;;;;;;;7.96;100.00;102921.75;5142576;27;20022;-46
2021/12/15 03:58:09;;;;;;;168.75;42.30;;;;;;;7.96;100.00;102927.94;5141975;27;20896;-45
2021/12/15 04:00:37;;;;;;;167.55;42.65;;;;;;;7.95;100.00;102928.88;5142388;27;20022;-44
2021/12/15 04:03:03;;;;;;;169.93;43.65;;;;;;;7.96;100.00;102929.72;5140872;27;20576;-44
2021/12/15 04:05:28;;;;;;;187.25;48.08;;;;;;;7.97;100.00;102931.44;5142742;27;20083;-47
2021/12/15 04:07:54;;;;;;;177.77;48.58;;;;;;;7.95;100.00;102930.69;5141411;27;20026;-46
2021/12/15 04:10:23;;;;;;;163.00;43.53;;;;;;;7.96;100.00;102933.25;5142557;27;20505;-46
2021/12/15 04:12:49;;;;;;;172.10;43.80;;;;;;;7.97;100.00;102934.97;5142192;27;20168;-46
2021/12/15 04:15:27;;;;;;;172.35;44.00;;;;;;;7.97;100.00;102934.97;5142569;27;20019;-46
2021/12/15 04:18:00;;;;;;;158.70;41.13;;;;;;;7.96;100.00;102927.06;5120017;27;20542;-46
2021/12/15 04:20:30;;;;;;;172.43;44.60;;;;;;;7.97;100.00;102936.78;5139510;27;20497;-47
2021/12/15 04:22:56;;;;;;;166.68;42.58;;;;;;;7.95;100.00;102933.34;5140152;27;20019;-45
2021/12/15 04:25:28;;;;;;;157.07;41.45;;;;;;;7.96;100.00;102932.38;5141859;27;20034;-45
2021/12/15 04:28:04;;;;;;;166.25;42.75;;;;;;;7.95;100.00;102939.53;5141177;27;20037;-47
2021/12/15 04:30:32;;;;;;;168.75;44.83;;;;;;;7.96;100.00;102943.91;5142103;27;20125;-44
2021/12/15 04:33:07;;;;;;;167.23;42.17;;;;;;;7.96;100.00;102940.38;5140363;27;20034;-45
2021/12/15 04:35:32;;;;;;;161.68;42.65;;;;;;;7.95;100.00;102938.66;5141276;27;20021;-46
2021/12/15 04:37:58;;;;;;;163.63;39.88;;;;;;;7.93;100.00;102933.44;5139680;27;20107;-48
2021/12/15 04:40:25;;;;;;;163.23;41.75;;;;;;;7.98;100.00;102949.13;5141755;27;20521;-46
2021/12/15 04:42:51;;;;;;;165.57;40.13;;;;;;;7.95;100.00;102938.66;5141138;27;20019;-45
2021/12/15 04:45:20;;;;;;;180.70;43.83;;;;;;;7.98;100.00;102946.47;5140731;27;20026;-46
2021/12/15 04:47:50;;;;;;;161.10;44.13;;;;;;;7.98;100.00;102943.81;5139698;27;20126;-46
2021/12/15 04:50:16;;;;;;;137.15;36.70;;;;;;;7.99;100.00;102946.38;5123018;27;20481;-46
2021/12/15 04:52:41;;;;;;;151.93;40.38;;;;;;;7.99;100.00;102950.84;5138994;27;20237;-45
2021/12/15 04:55:07;;;;;;;156.80;42.28;;;;;;;7.99;100.00;102950.84;5137946;27;20026;-45
2021/12/15 04:57:33;;;;;;;151.40;39.33;;;;;;;7.98;100.00;102947.31;5140892;27;20040;-46
2021/12/15 04:59:58;;;;;;;156.73;41.30;;;;;;;7.99;100.00;102954.38;5139750;27;20052;-45
2021/12/15 05:02:24;;;;;;;157.52;42.30;;;;;;;8.00;100.00;102955.22;5138686;27;20071;-48
2021/12/15 05:04:50;;;;;;;149.75;39.80;;;;;;;8.02;100.00;102964.81;5139340;27;20014;-44
2021/12/15 05:07:17;;;;;;;163.20;42.05;;;;;;;8.02;100.00;102961.28;5125550;27;20071;-45
2021/12/15 05:09:44;;;;;;;163.48;43.17;;;;;;;8.03;100.00;102952.38;5131851;27;20435;-47
2021/12/15 05:12:10;;;;;;;157.77;43.10;;;;;;;8.01;100.00;102957.78;5128178;27;20360;-47
2021/12/15 05:14:35;;;;;;;148.90;41.72;;;;;;;8.03;100.00;102952.38;5139323;27;20034;-45
2021/12/15 05:17:01;;;;;;;156.52;40.17;;;;;;;8.03;100.00;102955.88;5138688;27;20251;-45
2021/12/15 05:19:27;;;;;;;160.25;40.88;;;;;;;8.01;100.00;102957.78;5141208;27;20106;-48
2021/12/15 05:21:57;;;;;;;164.30;42.88;;;;;;;8.04;100.00;102959.41;5122167;27;20023;-49
2021/12/15 05:26:54;;;;;;;172.18;42.38;;;;;;;8.06;100.00;102961.97;5119568;27;20035;-44
2021/12/15 05:29:19;;;;;;;159.13;41.60;;;;;;;8.05;100.00;102966.44;5120119;27;20026;-47
2021/12/15 05:31:44;;;;;;;158.65;43.10;;;;;;;8.03;100.00;102960.38;5119068;27;20033;-45
2021/12/15 05:34:10;;;;;;;169.82;42.05;;;;;;;8.06;100.00;102965.47;5119244;27;20054;-47
2021/12/15 05:36:35;;;;;;;167.38;42.35;;;;;;;8.07;100.00;102966.34;5119457;27;20427;-47
2021/12/15 05:39:01;;;;;;;160.73;41.35;;;;;;;8.07;100.00;102967.19;5098660;27;20035;-49
2021/12/15 05:41:26;;;;;;;164.40;41.65;;;;;;;8.07;100.00;102966.34;5120413;27;20471;-49
2021/12/15 05:43:52;;;;;;;175.38;45.38;;;;;;;8.06;100.00;102962.81;5119315;27;20407;-45
2021/12/15 05:46:17;;;;;;;172.32;43.88;;;;;;;8.07;100.00;102966.34;5119281;27;20030;-45
2021/12/15 05:48:43;;;;;;;164.93;43.08;;;;;;;8.08;100.00;102966.25;5119212;27;20126;-47
2021/12/15 05:51:08;;;;;;;174.95;42.45;;;;;;;8.08;100.00;102966.25;5121629;27;20068;-46
2021/12/15 05:53:34;;;;;;;158.95;40.85;;;;;;;8.07;100.00;102966.34;5138831;27;20469;-47
2021/12/15 05:55:59;;;;;;;175.77;44.15;;;;;;;8.10;100.00;102964.34;5139935;27;20023;-48
2021/12/15 05:58:24;;;;;;;181.35;43.35;;;;;;;8.08;100.00;102968.94;5139573;27;20058;-49
2021/12/15 06:00:50;;;;;;;186.68;43.70;;;;;;;8.10;100.00;102975.00;5138716;27;20099;-49
2021/12/15 06:03:16;;;;;;;182.07;45.28;;;;;;;8.08;100.00;102968.03;5139854;27;20076;-47
2021/12/15 06:05:42;;;;;;;184.63;45.63;;;;;;;8.08;100.00;102974.25;5139647;27;20022;-50
2021/12/15 06:08:08;;;;;;;177.70;43.55;;;;;;;8.11;100.00;102975.84;5138040;27;20387;-48
2021/12/15 06:10:35;;;;;;;182.88;42.95;;;;;;;8.11;100.00;102982.06;5138769;27;20023;-46
2021/12/15 06:13:03;;;;;;;182.23;41.85;;;;;;;8.08;100.00;102974.25;5137951;27;20022;-44
2021/12/15 06:15:29;;;;;;;180.77;43.92;;;;;;;8.11;100.00;102981.16;5137773;27;20030;-50
2021/12/15 06:18:05;;;;;;;189.30;45.08;;;;;;;8.10;100.00;102979.47;5137662;27;20462;-47
2021/12/15 06:20:31;;;;;;;182.93;42.47;;;;;;;8.11;100.00;102989.16;5137298;27;20121;-47
2021/12/15 06:23:00;;;;;;;185.30;43.17;;;;;;;8.11;100.00;102986.50;5113551;27;20103;-47
2021/12/15 06:25:25;;;;;;;185.40;42.70;;;;;;;8.11;100.00;102984.72;5134092;27;20534;-49
2021/12/15 06:27:51;;;;;;;191.90;45.28;;;;;;;8.11;100.00;102987.38;5130778;27;20019;-45
2021/12/15 06:30:16;;;;;;;194.38;46.15;;;;;;;8.11;100.00;102989.16;5138641;27;20014;-46
2021/12/15 06:32:42;;;;;;;187.52;44.63;;;;;;;8.12;100.00;102997.06;5117880;27;20087;-44
2021/12/15 06:35:09;;;;;;;186.00;43.88;;;;;;;8.13;100.00;102992.56;5138501;27;20018;-46
2021/12/15 06:37:35;;;;;;;194.95;45.75;;;;;;;8.13;100.00;102990.78;5137044;27;20041;-49
2021/12/15 06:40:01;;;;;;;204.90;46.50;;;;;;;8.14;100.00;102994.31;5138129;27;20022;-47
2021/12/15 06:42:27;;;;;;;212.15;47.35;;;;;;;8.13;100.00;103000.56;5138466;27;20080;-46
2021/12/15 06:44:52;;;;;;;195.10;45.17;;;;;;;8.15;100.00;103004.84;5138462;27;20058;-45
2021/12/15 07:00:30;;;;;;;198.23;45.20;;;;;;;8.14;100.00;103003.13;5138514;27;20056;-45
2021/12/15 07:02:56;;;;;;;202.60;43.63;;;;;;;8.13;100.00;102997.91;5131620;27;20022;-47
2021/12/15 07:05:23;;;;;;;208.27;46.60;;;;;;;8.14;100.00;103005.78;5138078;27;20030;-47
2021/12/15 07:07:51;;;;;;;199.02;43.70;;;;;;;8.16;100.00;103008.38;5137498;27;20023;-46
2021/12/15 07:10:21;;;;;;;234.75;51.63;;;;;;;8.16;100.00;103017.22;5139745;27;20038;-46
2021/12/15 07:12:46;;;;;;;222.05;49.35;;;;;;;8.19;100.00;103014.34;5143201;27;20544;-46
2021/12/15 07:15:13;;;;;;;202.90;45.17;;;;;;;8.20;100.00;103020.56;5143953;27;20235;-48
2021/12/15 07:17:40;;;;;;;210.15;46.85;;;;;;;8.19;100.00;103018.84;5121536;27;20538;-46
2021/12/15 07:20:31;;;;;;;209.63;44.50;;;;;;;8.19;100.00;103027.66;5142593;27;20142;-47
2021/12/15 07:22:54;;;;;;;199.27;45.60;;;;;;;8.16;100.00;103027.88;5130578;27;20142;-46
2021/12/15 07:25:21;;;;;;;218.05;47.15;;;;;;;8.19;100.00;103021.50;5142840;27;20045;-50
2021/12/15 07:27:47;;;;;;;222.82;48.08;;;;;;;8.17;100.00;103012.75;5142546;27;20172;-47
2021/12/15 07:30:12;;;;;;;205.00;44.38;;;;;;;8.18;100.00;103023.31;5142772;27;20097;-47
2021/12/15 07:32:38;;;;;;;203.45;45.05;;;;;;;8.19;100.00;103021.50;5140800;27;20496;-46
2021/12/15 07:35:05;;;;;;;224.57;47.58;;;;;;;8.20;100.00;103023.22;5142484;27;20407;-47
2021/12/15 07:37:32;;;;;;;215.43;45.17;;;;;;;8.20;100.00;103032.06;5135301;27;20567;-46
2021/12/15 07:39:59;;;;;;;207.18;45.38;;;;;;;8.22;100.00;103031.97;5141569;27;20261;-49
2021/12/15 07:42:34;;;;;;;211.57;46.65;;;;;;;8.18;100.00;103022.44;5141197;27;20015;-44
2021/12/15 07:45:00;;;;;;;209.30;48.70;;;;;;;8.21;100.00;103028.47;5138028;27;20047;-47
2021/12/15 07:47:26;;;;;;;209.07;47.30;;;;;;;8.22;100.00;103029.31;5140701;27;20078;-50
2021/12/15 07:49:51;;;;;;;219.80;46.47;;;;;;;8.26;100.00;103027.31;5106043;27;20541;-47
2021/12/15 07:52:17;;;;;;;216.80;47.95;;;;;;;8.24;100.00;103030.06;5133882;27;20031;-47
2021/12/15 07:54:42;;;;;;;201.43;45.53;;;;;;;8.26;100.00;103040.63;5142551;27;20019;-45
2021/12/15 07:57:11;;;;;;;210.02;47.60;;;;;;;8.26;100.00;103038.81;5142147;27;20033;-46
2021/12/15 07:59:37;;;;;;;211.77;46.22;;;;;;;8.23;100.00;103041.66;5119428;27;20482;-48
2021/12/15 08:02:03;;;;;;;204.55;45.92;;;;;;;8.27;100.00;103040.53;5140915;27;20026;-44
2021/12/15 08:04:28;;;;;;;211.98;46.35;;;;;;;8.26;100.00;103038.81;5136838;27;20102;-44
2021/12/15 08:06:54;;;;;;;201.85;46.83;;;;;;;8.27;100.00;103040.53;5141752;27;20573;-45
2021/12/15 08:09:20;;;;;;;201.70;45.33;;;;;;;8.25;100.00;103034.44;5141636;27;20023;-47
2021/12/15 08:11:46;;;;;;;207.60;47.00;;;;;;;8.27;100.00;103034.38;5142552;27;20105;-45
2021/12/15 08:14:11;;;;;;;209.68;46.33;;;;;;;8.28;100.00;103044.94;5142426;27;20165;-48
2021/12/15 08:16:37;;;;;;;219.70;48.10;;;;;;;8.28;100.00;103050.25;5141664;27;20018;-47
2021/12/15 08:19:02;;;;;;;221.02;49.80;;;;;;;8.28;100.00;103052.03;5140884;27;20062;-45
2021/12/15 08:21:28;;;;;;;220.80;49.90;;;;;;;8.30;100.00;103047.47;5141797;27;20019;-47
2021/12/15 08:23:54;;;;;;;215.52;48.40;;;;;;;8.29;100.00;103051.94;5121270;27;21037;-48
2021/12/15 08:26:19;;;;;;;214.75;50.40;;;;;;;8.31;100.00;103055.38;5141899;27;20046;-45
2021/12/15 08:28:45;;;;;;;226.90;52.45;;;;;;;8.33;100.00;103052.63;5141906;27;20018;-45
2021/12/15 08:31:10;;;;;;;228.88;51.85;;;;;;;8.34;100.00;103044.53;5141306;27;20029;-45
2021/12/15 08:33:36;;;;;;;223.05;51.25;;;;;;;8.35;100.00;103046.25;5141959;27;20075;-49
2021/12/15 08:36:10;;;;;;;213.00;48.63;;;;;;;8.36;100.00;103052.44;5140885;27;20057;-46
2021/12/15 08:38:39;;;;;;;209.82;48.97;;;;;;;8.36;100.00;103060.41;5139524;27;20122;-46
2021/12/15 08:41:09;;;;;;;217.63;52.40;;;;;;;8.39;100.00;103054.91;5141528;27;20022;-46
2021/12/15 08:43:35;;;;;;;237.55;51.70;;;;;;;8.39;100.00;103058.44;5122121;27;20021;-47
2021/12/15 08:46:08;;;;;;;219.98;50.63;;;;;;;8.41;100.00;103055.69;5121778;27;20050;-49
2021/12/15 08:48:36;;;;;;;217.45;51.15;;;;;;;8.43;100.00;103064.44;5141102;27;20517;-49
2021/12/15 08:51:03;;;;;;;220.18;51.88;;;;;;;8.39;100.00;103049.59;5141135;27;20648;-44
2021/12/15 08:53:29;;;;;;;208.38;48.67;;;;;;;8.44;100.00;103052.88;5140128;27;20019;-49
2021/12/15 08:55:54;;;;;;;213.27;48.55;;;;;;;8.45;100.00;103059.88;5141604;27;20026;-47
2021/12/15 08:58:21;;;;;;;208.25;46.30;;;;;;;8.46;100.00;103058.94;5141625;27;20169;-48
2021/12/15 09:00:50;;;;;;;211.95;49.83;;;;;;;8.50;100.00;103062.28;5140981;27;20015;-46
2021/12/15 09:03:17;;;;;;;206.40;48.50;;;;;;;8.51;100.00;103064.84;5141711;27;20062;-45
2021/12/15 09:05:43;;;;;;;208.23;51.55;;;;;;;8.52;100.00;103061.25;5141277;27;20427;-45
2021/12/15 09:08:10;;;;;;;217.43;51.28;;;;;;;8.52;100.00;103066.56;5121396;27;20125;-48
2021/12/15 09:10:37;;;;;;;205.32;50.55;;;;;;;8.54;100.00;103062.00;5141358;27;20373;-47
2021/12/15 09:13:04;;;;;;;206.45;47.60;;;;;;;8.57;100.00;103068.94;5141360;27;20106;-46
2021/12/15 09:15:31;;;;;;;209.60;52.28;;;;;;;8.57;100.00;103072.47;5140322;27;20119;-45
2021/12/15 09:17:57;;;;;;;209.88;51.63;;;;;;;8.60;100.00;103076.75;5140750;27;20094;-50
2021/12/15 09:20:26;;;;;;;214.05;52.05;;;;;;;8.61;100.00;103077.63;5141490;27;20022;-47
2021/12/15 09:22:52;;;;;;;216.25;53.60;;;;;;;8.62;100.00;103080.16;5120736;27;20023;-46
2021/12/15 09:25:18;;;;;;;206.82;50.22;;;;;;;8.63;100.00;103084.56;5141893;27;20034;-48
2021/12/15 09:27:46;;;;;;;206.98;51.70;;;;;;;8.59;100.00;103083.03;5122029;27;20014;-45
2021/12/15 09:30:15;;;;;;;215.60;55.13;;;;;;;8.64;100.00;103088.94;5121323;27;20049;-43
2021/12/15 09:32:40;;;;;;;209.27;50.70;;;;;;;8.66;100.00;103092.38;5140531;27;20354;-43
2021/12/15 09:35:08;;;;;;;217.00;52.30;;;;;;;8.68;100.00;103098.47;5141534;27;20026;-48
2021/12/15 09:37:33;;;;;;;203.30;50.28;;;;;;;8.70;100.00;103101.88;5139888;27;20674;-48
2021/12/15 09:39:59;;;;;;;200.23;49.63;;;;;;;8.72;100.00;103096.47;5140868;27;20030;-46
2021/12/15 09:42:31;;;;;;;205.85;50.03;;;;;;;8.70;100.00;103091.22;5140839;27;20390;-47
2021/12/15 09:45:05;;;;;;;200.05;51.17;;;;;;;8.76;100.00;103092.69;5139978;27;20127;-46
2021/12/15 09:47:47;;;;;;;211.25;50.80;;;;;;;8.78;100.00;103096.09;5139831;27;20133;-46
2021/12/15 10:06:46;;;;;;;196.73;51.10;;;;;;;9.03;100.00;103108.78;5140951;27;20023;-48
2021/12/15 10:19:57;;;;;;;183.70;51.22;;;;;;;9.17;100.00;103101.72;5140038;27;20042;-44
2021/12/15 10:25:07;;;;;;;183.80;51.40;;;;;;;9.31;100.00;103107.88;5139892;27;20039;-47
2021/12/15 10:28:03;;;;;;;180.18;50.25;;;;;;;9.37;100.00;103112.00;5140083;27;20516;-48
2021/12/15 10:30:41;;;;;;;178.07;50.88;;;;;;;9.43;100.00;103108.91;5139601;27;20105;-47
2021/12/15 10:33:15;;;;;;;172.00;51.35;;;;;;;9.45;100.00;103107.03;5139014;27;20018;-49
2021/12/15 10:35:49;;;;;;;185.10;52.83;;;;;;;9.49;100.00;103108.53;5139799;27;20450;-48
2021/12/15 10:38:19;;;;;;;171.52;49.45;;;;;;;9.52;100.00;103107.47;5138710;27;20113;-48
2021/12/15 10:41:05;;;;;;;170.75;51.90;;;;;;;9.54;100.00;103102.91;5139902;27;20039;-45
2021/12/15 10:43:47;;;;;;;171.63;51.10;;;;;;;9.56;100.00;103108.16;5139901;27;20329;-47
2021/12/15 10:46:17;;;;;;;173.40;51.90;;;;;;;9.56;100.00;103105.47;5138193;27;20027;-45
2021/12/15 10:49:24;;;;;;;169.85;51.60;;;;;;;9.58;100.00;103107.09;5138964;27;20054;-47
2021/12/15 10:52:08;;;;;;;167.02;51.20;;;;;;;9.60;100.00;103115.00;5118100;27;20421;-46
2021/12/15 10:54:36;;;;;;;173.80;53.42;;;;;;;9.60;100.00;103113.16;5118371;28;20101;-49
2021/12/15 10:57:31;;;;;;;163.52;53.25;;;;;;;9.58;100.00;103107.09;5118056;28;20115;-51
2021/12/15 10:59:59;;;;;;;165.25;52.15;;;;;;;9.61;100.00;103114.03;5117385;28;20566;-46
2021/12/15 11:02:28;;;;;;;166.57;53.53;;;;;;;9.59;100.00;103102.59;5118677;28;20146;-49
2021/12/15 11:05:17;;;;;;;171.25;53.63;;;;;;;9.61;100.00;103104.22;5118695;28;20027;-48
2021/12/15 11:07:43;;;;;;;176.90;57.22;;;;;;;9.64;100.00;103113.81;5117527;28;20370;-50
2021/12/15 11:10:16;;;;;;;175.77;55.20;;;;;;;9.68;100.00;103118.88;5118797;28;20031;-44
2021/12/15 11:12:43;;;;;;;170.30;53.55;;;;;;;9.68;100.00;103116.19;5099710;28;20023;-46
2021/12/15 11:15:16;;;;;;;177.93;54.22;;;;;;;9.71;100.00;103102.66;5118002;28;20027;-49
2021/12/15 11:17:56;;;;;;;174.35;53.75;;;;;;;9.74;100.00;103106.94;5117771;28;20110;-48
2021/12/15 11:20:31;;;;;;;173.18;53.55;;;;;;;9.74;100.00;103108.75;5119278;28;20102;-44
2021/12/15 11:23:03;;;;;;;170.98;56.05;;;;;;;9.76;100.00;103107.72;5125281;27;20022;-47
2021/12/15 11:25:35;;;;;;;174.52;55.90;;;;;;;9.79;100.00;103111.97;5139742;27;20070;-48
2021/12/15 11:28:00;;;;;;;;;;;;;;;9.83;100.00;103116.19;5138982;27;20015;-45
2021/12/15 11:30:32;;;;;;;173.93;54.47;;;;;;;9.84;100.00;103116.09;5138839;27;19911;-46
2021/12/15 11:33:28;;;;;;;164.18;53.47;;;;;;;9.88;100.00;103106.06;5138356;27;20123;-49
2021/12/15 11:36:26;;;;;;;165.23;53.50;;;;;;;9.89;100.00;103097.94;5124082;27;20039;-46
2021/12/15 11:38:59;;;;;;;173.05;55.40;;;;;;;9.86;100.00;103097.28;5137592;27;20026;-47
2021/12/15 11:41:37;;;;;;;163.43;54.85;;;;;;;9.85;100.00;103091.09;5139244;27;20275;-47
2021/12/15 11:44:12;;;;;;;161.13;51.20;;;;;;;9.83;100.00;103078.81;5138764;27;20463;-47
2021/12/15 11:46:44;;;;;;;178.13;55.05;;;;;;;9.83;100.00;103097.50;5138334;27;20482;-44
2021/12/15 11:49:13;;;;;;;172.40;52.83;;;;;;;9.84;100.00;103096.53;5138675;27;20053;-47
2021/12/15 11:51:49;;;;;;;160.25;52.67;;;;;;;9.85;100.00;103103.59;5132476;27;20011;-47
2021/12/15 11:54:26;;;;;;;155.45;53.25;;;;;;;9.86;100.00;103087.47;5117517;28;20027;-45
2021/12/15 11:57:01;;;;;;;150.43;51.72;;;;;;;9.87;100.00;103097.16;5118444;27;20371;-45
2021/12/15 11:59:36;;;;;;;144.23;54.13;;;;;;;9.85;100.00;103098.25;5122166;27;20023;-46
2021/12/15 12:02:07;;;;;;;155.68;52.60;;;;;;;9.86;100.00;103097.28;5120852;27;20035;-48
2021/12/15 12:04:44;;;;;;;135.52;48.17;;;;;;;9.86;100.00;103099.94;5121930;27;20023;-49
2021/12/15 12:07:29;;;;;;;136.18;48.90;;;;;;;9.85;100.00;103098.25;5121061;27;20058;-47
2021/12/15 12:10:03;;;;;;;153.45;51.22;;;;;;;9.86;100.00;103094.59;5104004;27;20418;-45
2021/12/15 12:12:37;;;;;;;150.68;51.70;;;;;;;9.89;100.00;103089.06;5120920;27;20026;-50
2021/12/15 12:15:06;;;;;;;148.27;53.05;;;;;;;9.95;100.00;103091.34;5120859;27;20037;-48
2021/12/15 12:17:35;;;;;;;141.85;52.88;;;;;;;9.94;100.00;103083.44;5121889;27;20026;-50
2021/12/15 12:20:07;;;;;;;138.48;48.88;;;;;;;9.99;100.00;103086.66;5121446;27;20066;-49
2021/12/15 12:22:34;;;;;;;147.85;53.63;;;;;;;9.98;100.00;103084.94;5120345;27;20446;-46
2021/12/15 12:25:08;;;;;;;143.60;54.08;;;;;;;10.00;100.00;103077.69;5121812;27;20487;-46
2021/12/15 12:27:35;;;;;;;147.68;53.88;;;;;;;9.99;100.00;103090.16;5131574;27;20072;-48